sensor_id;sensor_type;location;lat;lon;timestamp;pressure;altitude;pressure_sealevel;temperature;humidity
46534;BME280;32260;52.008;4.752;2023-04-20T00:02:04;102507.03;;;9.49;44.68
46534;BME280;32260;52.008;4.752;2023-04-20T00:04:32;102497.22;;;9.37;43.95
46534;BME280;32260;52.008;4.752;2023-04-20T00:06:59;102496.38;;;9.42;45.49
46534;BME280;32260;52.008;4.752;2023-04-20T00:09:26;102498.16;;;9.43;44.73
46534;BME280;32260;52.008;4.752;2023-04-20T00:11:53;102503.38;;;9.36;44.95
46534;BME280;32260;52.008;4.752;2023-04-20T00:14:19;102500.66;;;9.30;45.18
46534;BME280;32260;52.008;4.752;2023-04-20T00:16:46;102500.66;;;9.30;45.25
46534;BME280;32260;52.008;4.752;2023-04-20T00:19:12;102498.94;;;9.32;44.78
46534;BME280;32260;52.008;4.752;2023-04-20T00:21:39;102496.22;;;9.28;46.30
46534;BME280;32260;52.008;4.752;2023-04-20T00:24:05;102502.38;;;9.28;45.98
46534;BME280;32260;52.008;4.752;2023-04-20T00:26:31;102498.06;;;9.33;45.44
46534;BME280;32260;52.008;4.752;2023-04-20T00:28:57;102500.72;;;9.33;45.87
46534;BME280;32260;52.008;4.752;2023-04-20T00:31:23;102495.44;;;9.33;45.84
46534;BME280;32260;52.008;4.752;2023-04-20T00:33:50;102491.81;;;9.28;46.11
46534;BME280;32260;52.008;4.752;2023-04-20T00:36:16;102487.44;;;9.32;45.70
46534;BME280;32260;52.008;4.752;2023-04-20T00:38:42;102485.66;;;9.31;46.27
46534;BME280;32260;52.008;4.752;2023-04-20T00:41:08;102483.00;;;9.29;45.79
46534;BME280;32260;52.008;4.752;2023-04-20T00:43:34;102470.66;;;9.28;46.19
46534;BME280;32260;52.008;4.752;2023-04-20T00:46:00;102483.88;;;9.27;46.09
46534;BME280;32260;52.008;4.752;2023-04-20T00:48:28;102471.50;;;9.24;45.59
46534;BME280;32260;52.008;4.752;2023-04-20T00:50:54;102473.25;;;9.23;46.63
46534;BME280;32260;52.008;4.752;2023-04-20T00:53:21;102470.56;;;9.22;46.62
46534;BME280;32260;52.008;4.752;2023-04-20T00:55:49;102470.56;;;9.19;47.87
46534;BME280;32260;52.008;4.752;2023-04-20T00:58:15;102471.41;;;9.16;46.72
46534;BME280;32260;52.008;4.752;2023-04-20T01:00:41;102463.41;;;9.12;46.38
46534;BME280;32260;52.008;4.752;2023-04-20T01:03:07;102458.91;;;9.04;46.56
46534;BME280;32260;52.008;4.752;2023-04-20T01:05:34;102448.31;;;9.03;47.39
46534;BME280;32260;52.008;4.752;2023-04-20T01:08:00;102452.75;;;9.04;47.56
46534;BME280;32260;52.008;4.752;2023-04-20T01:10:26;102446.53;;;9.00;46.78
46534;BME280;32260;52.008;4.752;2023-04-20T01:12:52;102438.66;;;9.03;46.28
46534;BME280;32260;52.008;4.752;2023-04-20T01:15:19;102435.09;;;9.01;47.23
46534;BME280;32260;52.008;4.752;2023-04-20T01:17:45;102428.94;;;9.04;46.20
46534;BME280;32260;52.008;4.752;2023-04-20T01:20:11;102420.09;;;9.00;46.36
46534;BME280;32260;52.008;4.752;2023-04-20T01:22:46;102411.31;;;9.03;46.64
46534;BME280;32260;52.008;4.752;2023-04-20T01:25:13;102413.88;;;8.98;45.85
46534;BME280;32260;52.008;4.752;2023-04-20T01:27:39;102403.38;;;9.01;46.84
46534;BME280;32260;52.008;4.752;2023-04-20T01:30:06;102402.47;;;9.01;46.20
46534;BME280;32260;52.008;4.752;2023-04-20T01:32:32;102394.53;;;9.01;46.35
46534;BME280;32260;52.008;4.752;2023-04-20T01:34:59;102394.47;;;8.95;46.12
46534;BME280;32260;52.008;4.752;2023-04-20T01:37:25;102392.78;;;9.00;46.59
46534;BME280;32260;52.008;4.752;2023-04-20T01:39:51;102390.91;;;8.91;45.28
46534;BME280;32260;52.008;4.752;2023-04-20T01:42:17;102383.94;;;8.98;46.34
46534;BME280;32260;52.008;4.752;2023-04-20T01:44:44;102368.13;;;9.02;46.54
46534;BME280;32260;52.008;4.752;2023-04-20T01:47:10;102364.66;;;9.10;46.14
46534;BME280;32260;52.008;4.752;2023-04-20T01:49:36;102363.84;;;9.14;46.05
46534;BME280;32260;52.008;4.752;2023-04-20T01:52:02;102369.19;;;9.18;45.91
46534;BME280;32260;52.008;4.752;2023-04-20T01:54:28;102364.72;;;9.16;46.29
46534;BME280;32260;52.008;4.752;2023-04-20T01:56:55;102370.06;;;9.22;46.05
46534;BME280;32260;52.008;4.752;2023-04-20T01:59:21;102370.94;;;9.19;45.92
46534;BME280;32260;52.008;4.752;2023-04-20T02:01:47;102363.91;;;9.23;46.23
46534;BME280;32260;52.008;4.752;2023-04-20T02:04:13;102360.34;;;9.19;47.06
46534;BME280;32260;52.008;4.752;2023-04-20T02:06:39;102355.06;;;9.16;47.28
46534;BME280;32260;52.008;4.752;2023-04-20T02:09:05;102357.69;;;9.15;47.68
46534;BME280;32260;52.008;4.752;2023-04-20T02:11:34;102345.41;;;9.20;47.47
46534;BME280;32260;52.008;4.752;2023-04-20T02:14:00;102341.91;;;9.24;46.86
46534;BME280;32260;52.008;4.752;2023-04-20T02:16:26;102333.09;;;9.23;47.30
46534;BME280;32260;52.008;4.752;2023-04-20T02:18:54;102330.41;;;9.22;47.63
46534;BME280;32260;52.008;4.752;2023-04-20T02:21:21;102335.75;;;9.23;47.16
46534;BME280;32260;52.008;4.752;2023-04-20T02:23:47;102328.69;;;9.24;48.11
46534;BME280;32260;52.008;4.752;2023-04-20T02:26:13;102329.53;;;9.23;48.27
46534;BME280;32260;52.008;4.752;2023-04-20T02:28:39;102326.03;;;9.21;49.20
46534;BME280;32260;52.008;4.752;2023-04-20T02:31:06;102316.31;;;9.23;49.03
46534;BME280;32260;52.008;4.752;2023-04-20T02:33:32;102316.31;;;9.23;48.74
46534;BME280;32260;52.008;4.752;2023-04-20T02:35:58;102311.88;;;9.19;49.79
46534;BME280;32260;52.008;4.752;2023-04-20T02:38:24;102317.22;;;9.25;49.18
46534;BME280;32260;52.008;4.752;2023-04-20T02:40:50;102318.09;;;9.22;50.38
46534;BME280;32260;52.008;4.752;2023-04-20T02:43:16;102312.88;;;9.30;50.57
46534;BME280;32260;52.008;4.752;2023-04-20T02:45:42;102312.00;;;9.31;51.41
46534;BME280;32260;52.008;4.752;2023-04-20T02:48:08;102308.47;;;9.32;51.10
46534;BME280;32260;52.008;4.752;2023-04-20T02:50:34;102304.97;;;9.36;51.31
46534;BME280;32260;52.008;4.752;2023-04-20T02:53:02;102299.75;;;9.43;50.42
46534;BME280;32260;52.008;4.752;2023-04-20T02:55:29;102298.00;;;9.46;51.40
46534;BME280;32260;52.008;4.752;2023-04-20T02:57:55;102291.00;;;9.50;52.94
46534;BME280;32260;52.008;4.752;2023-04-20T03:00:21;102292.78;;;9.54;52.82
46534;BME280;32260;52.008;4.752;2023-04-20T03:02:47;102292.88;;;9.66;52.12
46534;BME280;32260;52.008;4.752;2023-04-20T03:05:13;102285.84;;;9.70;52.68
46534;BME280;32260;52.008;4.752;2023-04-20T03:07:40;102287.66;;;9.82;51.87
46534;BME280;32260;52.008;4.752;2023-04-20T03:10:06;102279.72;;;9.79;53.36
46534;BME280;32260;52.008;4.752;2023-04-20T03:12:33;102279.75;;;9.86;53.44
46534;BME280;32260;52.008;4.752;2023-04-20T03:14:59;102278.06;;;9.95;52.80
46534;BME280;32260;52.008;4.752;2023-04-20T03:17:25;102272.69;;;9.85;53.32
46534;BME280;32260;52.008;4.752;2023-04-20T03:19:51;102274.50;;;9.91;53.19
46534;BME280;32260;52.008;4.752;2023-04-20T03:22:17;102276.28;;;9.94;52.59
46534;BME280;32260;52.008;4.752;2023-04-20T03:24:44;102269.19;;;9.90;52.90
46534;BME280;32260;52.008;4.752;2023-04-20T03:27:12;102261.22;;;9.86;54.26
46534;BME280;32260;52.008;4.752;2023-04-20T03:29:39;102264.81;;;9.96;53.82
46534;BME280;32260;52.008;4.752;2023-04-20T03:32:05;102265.75;;;10.04;53.90
46534;BME280;32260;52.008;4.752;2023-04-20T03:34:31;102258.75;;;10.16;53.17
46534;BME280;32260;52.008;4.752;2023-04-20T03:36:57;102256.09;;;10.19;54.29
46534;BME280;32260;52.008;4.752;2023-04-20T03:39:23;102250.81;;;10.25;53.83
46534;BME280;32260;52.008;4.752;2023-04-20T03:41:49;102240.28;;;10.34;53.25
46534;BME280;32260;52.008;4.752;2023-04-20T03:44:16;102239.44;;;10.37;53.72
46534;BME280;32260;52.008;4.752;2023-04-20T03:46:42;102235.94;;;10.44;53.25
46534;BME280;32260;52.008;4.752;2023-04-20T03:49:08;102238.53;;;10.43;53.88
46534;BME280;32260;52.008;4.752;2023-04-20T03:51:34;102231.50;;;10.54;52.84
46534;BME280;32260;52.008;4.752;2023-04-20T03:54:00;102227.13;;;10.53;53.50
46534;BME280;32260;52.008;4.752;2023-04-20T03:56:26;102220.06;;;10.64;52.72
46534;BME280;32260;52.008;4.752;2023-04-20T03:58:53;102224.47;;;10.62;53.89
46534;BME280;32260;52.008;4.752;2023-04-20T04:01:19;102228.03;;;10.71;53.17
46534;BME280;32260;52.008;4.752;2023-04-20T04:03:45;102233.31;;;10.67;53.32
46534;BME280;32260;52.008;4.752;2023-04-20T04:06:11;102229.78;;;10.65;53.26
46534;BME280;32260;52.008;4.752;2023-04-20T04:08:37;102235.97;;;10.69;52.46
46534;BME280;32260;52.008;4.752;2023-04-20T04:11:03;102230.66;;;10.69;53.14
46534;BME280;32260;52.008;4.752;2023-04-20T04:13:30;102229.78;;;10.75;52.66
46534;BME280;32260;52.008;4.752;2023-04-20T04:15:56;102229.81;;;10.72;53.29
46534;BME280;32260;52.008;4.752;2023-04-20T04:18:22;102221.84;;;10.75;52.86
46534;BME280;32260;52.008;4.752;2023-04-20T04:20:48;102225.38;;;10.72;53.27
46534;BME280;32260;52.008;4.752;2023-04-20T04:23:14;102215.63;;;10.65;53.37
46534;BME280;32260;52.008;4.752;2023-04-20T04:25:40;102208.53;;;10.48;54.32
46534;BME280;32260;52.008;4.752;2023-04-20T04:28:06;102202.38;;;10.59;53.77
46534;BME280;32260;52.008;4.752;2023-04-20T04:30:32;102195.31;;;10.53;53.87
46534;BME280;32260;52.008;4.752;2023-04-20T04:33:00;102190.88;;;10.54;53.64
46534;BME280;32260;52.008;4.752;2023-04-20T04:35:29;102191.78;;;10.65;53.72
46534;BME280;32260;52.008;4.752;2023-04-20T04:37:56;102188.25;;;10.67;54.21
46534;BME280;32260;52.008;4.752;2023-04-20T04:40:22;102181.16;;;10.66;53.49
46534;BME280;32260;52.008;4.752;2023-04-20T04:42:48;102175.88;;;10.56;54.26
46534;BME280;32260;52.008;4.752;2023-04-20T04:45:14;102182.97;;;10.64;53.41
46534;BME280;32260;52.008;4.752;2023-04-20T04:47:41;102174.09;;;10.64;53.94
46534;BME280;32260;52.008;4.752;2023-04-20T04:50:08;102167.94;;;10.63;54.10
46534;BME280;32260;52.008;4.752;2023-04-20T04:52:35;102166.16;;;10.68;53.94
46534;BME280;32260;52.008;4.752;2023-04-20T04:55:02;102172.34;;;10.63;54.46
46534;BME280;32260;52.008;4.752;2023-04-20T04:57:32;102176.75;;;10.56;54.13
46534;BME280;32260;52.008;4.752;2023-04-20T04:59:58;102166.19;;;10.67;54.03
46534;BME280;32260;52.008;4.752;2023-04-20T05:02:25;102166.16;;;10.59;55.07
46534;BME280;32260;52.008;4.752;2023-04-20T05:04:51;102161.72;;;10.69;54.38
46534;BME280;32260;52.008;4.752;2023-04-20T05:07:17;102162.63;;;10.70;54.76
46534;BME280;32260;52.008;4.752;2023-04-20T05:09:43;102155.56;;;10.73;54.92
46534;BME280;32260;52.008;4.752;2023-04-20T05:12:09;102149.38;;;10.77;55.18
46534;BME280;32260;52.008;4.752;2023-04-20T05:14:35;102146.75;;;10.82;54.93
46534;BME280;32260;52.008;4.752;2023-04-20T05:17:01;102138.78;;;10.85;55.25
46534;BME280;32260;52.008;4.752;2023-04-20T05:19:27;102141.44;;;10.88;55.30
46534;BME280;32260;52.008;4.752;2023-04-20T05:21:53;102137.00;;;10.89;55.28
46534;BME280;32260;52.008;4.752;2023-04-20T05:24:19;102141.44;;;10.94;55.03
46534;BME280;32260;52.008;4.752;2023-04-20T05:26:45;102137.91;;;10.95;55.48
46534;BME280;32260;52.008;4.752;2023-04-20T05:29:12;102129.94;;;10.97;55.00
46534;BME280;32260;52.008;4.752;2023-04-20T05:31:38;102121.97;;;11.02;55.03
46534;BME280;32260;52.008;4.752;2023-04-20T05:34:05;102121.97;;;11.11;54.90
46534;BME280;32260;52.008;4.752;2023-04-20T05:36:31;102125.50;;;11.19;54.61
46534;BME280;32260;52.008;4.752;2023-04-20T05:38:58;102119.28;;;11.25;53.97
46534;BME280;32260;52.008;4.752;2023-04-20T05:41:24;102129.00;;;11.30;54.65
46534;BME280;32260;52.008;4.752;2023-04-20T05:43:55;102122.78;;;11.39;54.96
46534;BME280;32260;52.008;4.752;2023-04-20T05:46:22;102123.63;;;11.46;54.46
46534;BME280;32260;52.008;4.752;2023-04-20T05:48:48;102133.34;;;11.50;54.17
46534;BME280;32260;52.008;4.752;2023-04-20T05:51:14;102136.00;;;11.53;53.36
46534;BME280;32260;52.008;4.752;2023-04-20T05:53:42;102143.09;;;11.54;53.01
46534;BME280;32260;52.008;4.752;2023-04-20T05:56:09;102137.75;;;11.57;52.17
46534;BME280;32260;52.008;4.752;2023-04-20T05:58:36;102133.31;;;11.56;51.48
46534;BME280;32260;52.008;4.752;2023-04-20T06:01:02;102134.22;;;11.57;51.14
46534;BME280;32260;52.008;4.752;2023-04-20T06:03:29;102123.63;;;11.55;50.64
46534;BME280;32260;52.008;4.752;2023-04-20T06:05:55;102135.13;;;11.54;49.80
46534;BME280;32260;52.008;4.752;2023-04-20T06:08:21;102126.25;;;11.60;50.23
46534;BME280;32260;52.008;4.752;2023-04-20T06:10:47;102140.41;;;11.62;50.40
46534;BME280;32260;52.008;4.752;2023-04-20T06:13:13;102135.06;;;11.63;50.41
46534;BME280;32260;52.008;4.752;2023-04-20T06:15:39;102126.25;;;11.58;49.68
46534;BME280;32260;52.008;4.752;2023-04-20T06:18:05;102132.41;;;11.63;49.90
46534;BME280;32260;52.008;4.752;2023-04-20T06:20:31;102126.25;;;11.60;48.70
46534;BME280;32260;52.008;4.752;2023-04-20T06:22:57;102123.59;;;11.61;48.90
46534;BME280;32260;52.008;4.752;2023-04-20T06:25:24;102114.72;;;11.62;49.06
46534;BME280;32260;52.008;4.752;2023-04-20T06:27:50;102122.69;;;11.67;49.59
46534;BME280;32260;52.008;4.752;2023-04-20T06:30:16;102128.00;;;11.61;48.73
46534;BME280;32260;52.008;4.752;2023-04-20T06:32:42;102115.59;;;11.66;48.70
46534;BME280;32260;52.008;4.752;2023-04-20T06:35:08;102115.63;;;11.61;48.78
46534;BME280;32260;52.008;4.752;2023-04-20T06:37:35;102106.75;;;11.70;48.89
46534;BME280;32260;52.008;4.752;2023-04-20T06:40:02;102109.38;;;11.78;48.83
46534;BME280;32260;52.008;4.752;2023-04-20T06:42:33;102107.56;;;11.83;49.45
46534;BME280;32260;52.008;4.752;2023-04-20T06:45:00;102103.09;;;11.90;48.74
46534;BME280;32260;52.008;4.752;2023-04-20T06:47:59;102095.94;;;12.07;48.22
46534;BME280;32260;52.008;4.752;2023-04-20T06:50:27;102094.22;;;11.92;48.60
46534;BME280;32260;52.008;4.752;2023-04-20T06:52:54;102101.34;;;11.96;48.46
46534;BME280;32260;52.008;4.752;2023-04-20T06:55:20;102093.34;;;12.00;48.12
46534;BME280;32260;52.008;4.752;2023-04-20T06:57:46;102088.94;;;12.00;48.41
46534;BME280;32260;52.008;4.752;2023-04-20T07:00:13;102089.81;;;11.90;48.01
46534;BME280;32260;52.008;4.752;2023-04-20T07:02:43;102084.56;;;11.85;48.62
46534;BME280;32260;52.008;4.752;2023-04-20T07:05:17;102087.19;;;11.87;48.54
46534;BME280;32260;52.008;4.752;2023-04-20T07:07:46;102085.50;;;11.69;48.69
46534;BME280;32260;52.008;4.752;2023-04-20T07:10:13;102088.13;;;11.76;48.68
46534;BME280;32260;52.008;4.752;2023-04-20T07:12:40;102090.81;;;11.72;49.39
46534;BME280;32260;52.008;4.752;2023-04-20T07:15:07;102091.69;;;11.71;49.64
46534;BME280;32260;52.008;4.752;2023-04-20T07:17:37;102093.50;;;11.65;49.70
46534;BME280;32260;52.008;4.752;2023-04-20T07:20:03;102095.31;;;11.54;49.85
46534;BME280;32260;52.008;4.752;2023-04-20T07:22:34;102093.53;;;11.53;50.23
46534;BME280;32260;52.008;4.752;2023-04-20T07:25:01;102105.94;;;11.48;49.82
46534;BME280;32260;52.008;4.752;2023-04-20T07:27:34;102120.09;;;11.44;50.83
46534;BME280;32260;52.008;4.752;2023-04-20T07:30:01;102118.41;;;11.23;51.53
46534;BME280;32260;52.008;4.752;2023-04-20T07:32:31;102106.91;;;11.21;52.39
46534;BME280;32260;52.008;4.752;2023-04-20T07:35:07;102108.66;;;11.20;52.44
46534;BME280;32260;52.008;4.752;2023-04-20T07:37:39;102106.03;;;11.11;52.56
46534;BME280;32260;52.008;4.752;2023-04-20T07:40:09;102096.34;;;11.00;53.60
46534;BME280;32260;52.008;4.752;2023-04-20T07:42:43;102096.31;;;10.93;55.49
46534;BME280;32260;52.008;4.752;2023-04-20T07:45:18;102098.13;;;10.84;54.00
46534;BME280;32260;52.008;4.752;2023-04-20T07:47:46;102106.06;;;10.75;54.82
46534;BME280;32260;52.008;4.752;2023-04-20T07:50:16;102106.97;;;10.71;54.63
46534;BME280;32260;52.008;4.752;2023-04-20T07:52:42;102103.44;;;10.71;55.58
46534;BME280;32260;52.008;4.752;2023-04-20T07:55:10;102107.88;;;10.72;55.63
46534;BME280;32260;52.008;4.752;2023-04-20T07:57:38;102112.28;;;10.70;54.99
46534;BME280;32260;52.008;4.752;2023-04-20T08:00:05;102115.81;;;10.68;55.03
46534;BME280;32260;52.008;4.752;2023-04-20T08:02:32;102120.22;;;10.63;56.24
46534;BME280;32260;52.008;4.752;2023-04-20T08:05:00;102133.47;;;10.59;56.73
46534;BME280;32260;52.008;4.752;2023-04-20T08:07:26;102123.75;;;10.50;57.58
46534;BME280;32260;52.008;4.752;2023-04-20T08:09:52;102116.69;;;10.44;57.59
46534;BME280;32260;52.008;4.752;2023-04-20T08:12:19;102121.97;;;10.46;57.01
46534;BME280;32260;52.008;4.752;2023-04-20T08:14:45;102116.69;;;10.52;56.71
46534;BME280;32260;52.008;4.752;2023-04-20T08:17:11;102114.03;;;10.41;57.05
46534;BME280;32260;52.008;4.752;2023-04-20T08:19:37;102123.75;;;10.47;57.67
46534;BME280;32260;52.008;4.752;2023-04-20T08:22:04;102120.22;;;10.45;58.22
46534;BME280;32260;52.008;4.752;2023-04-20T08:24:31;102099.00;;;10.42;57.81
46534;BME280;32260;52.008;4.752;2023-04-20T08:26:57;102105.19;;;10.39;57.81
46534;BME280;32260;52.008;4.752;2023-04-20T08:29:24;102104.31;;;10.40;58.10
46534;BME280;32260;52.008;4.752;2023-04-20T08:31:50;102093.69;;;10.42;58.40
46534;BME280;32260;52.008;4.752;2023-04-20T08:34:16;102091.94;;;10.41;58.72
46534;BME280;32260;52.008;4.752;2023-04-20T08:36:42;102092.81;;;10.36;59.15
46534;BME280;32260;52.008;4.752;2023-04-20T08:39:12;102093.72;;;10.43;59.66
46534;BME280;32260;52.008;4.752;2023-04-20T08:41:38;102092.81;;;10.43;59.86
46534;BME280;32260;52.008;4.752;2023-04-20T08:44:05;102086.63;;;10.44;60.25
46534;BME280;32260;52.008;4.752;2023-04-20T08:46:33;102083.09;;;10.48;60.03
46534;BME280;32260;52.008;4.752;2023-04-20T08:49:00;102078.69;;;10.48;59.50
46534;BME280;32260;52.008;4.752;2023-04-20T08:51:28;102076.03;;;10.56;59.02
46534;BME280;32260;52.008;4.752;2023-04-20T08:53:57;102071.63;;;10.52;60.19
46534;BME280;32260;52.008;4.752;2023-04-20T08:56:34;102078.69;;;10.68;60.34
46534;BME280;32260;52.008;4.752;2023-04-20T08:59:02;102077.81;;;10.66;59.43
46534;BME280;32260;52.008;4.752;2023-04-20T09:01:29;102075.16;;;10.77;58.93
46534;BME280;32260;52.008;4.752;2023-04-20T09:03:55;102076.03;;;10.82;59.06
46534;BME280;32260;52.008;4.752;2023-04-20T09:06:21;102076.03;;;10.87;59.02
46534;BME280;32260;52.008;4.752;2023-04-20T09:08:48;102080.44;;;10.96;58.74
46534;BME280;32260;52.008;4.752;2023-04-20T09:14:03;102052.13;;;11.07;59.12
46534;BME280;32260;52.008;4.752;2023-04-20T09:16:32;102061.84;;;11.13;58.42
46534;BME280;32260;52.008;4.752;2023-04-20T09:18:59;102068.03;;;11.16;59.57
46534;BME280;32260;52.008;4.752;2023-04-20T09:21:26;102061.78;;;11.24;58.77
46534;BME280;32260;52.008;4.752;2023-04-20T09:23:56;102059.13;;;11.31;58.28
46534;BME280;32260;52.008;4.752;2023-04-20T09:26:22;102061.75;;;11.35;58.57
46534;BME280;32260;52.008;4.752;2023-04-20T09:28:49;102064.41;;;11.36;58.89
46534;BME280;32260;52.008;4.752;2023-04-20T09:31:20;102060.84;;;11.42;58.71
46534;BME280;32260;52.008;4.752;2023-04-20T09:34:03;102059.06;;;11.45;57.90
46534;BME280;32260;52.008;4.752;2023-04-20T09:36:50;102048.47;;;11.41;57.95
46534;BME280;32260;52.008;4.752;2023-04-20T09:39:18;102038.72;;;11.40;58.22
46534;BME280;32260;52.008;4.752;2023-04-20T09:41:45;102036.06;;;11.44;58.19
46534;BME280;32260;52.008;4.752;2023-04-20T09:44:12;102047.53;;;11.54;58.08
46534;BME280;32260;52.008;4.752;2023-04-20T09:46:40;102039.53;;;11.60;59.21
46534;BME280;32260;52.008;4.752;2023-04-20T09:49:08;102037.66;;;11.75;58.40
46534;BME280;32260;52.008;4.752;2023-04-20T09:51:37;102029.63;;;11.90;58.06
46534;BME280;32260;52.008;4.752;2023-04-20T09:54:05;102027.78;;;12.08;57.55
46534;BME280;32260;52.008;4.752;2023-04-20T09:56:32;102023.22;;;12.21;57.09
46534;BME280;32260;52.008;4.752;2023-04-20T09:59:00;102024.88;;;12.36;56.19
46534;BME280;32260;52.008;4.752;2023-04-20T10:01:29;102028.28;;;12.53;56.98
46534;BME280;32260;52.008;4.752;2023-04-20T10:03:58;102027.28;;;12.67;56.58
46534;BME280;32260;52.008;4.752;2023-04-20T10:06:27;102027.09;;;12.82;56.73
46534;BME280;32260;52.008;4.752;2023-04-20T10:08:54;102007.47;;;12.95;56.55
46534;BME280;32260;52.008;4.752;2023-04-20T10:11:40;102001.81;;;13.22;56.08
46534;BME280;32260;52.008;4.752;2023-04-20T10:14:23;102008.75;;;13.35;55.88
46534;BME280;32260;52.008;4.752;2023-04-20T10:17:02;101992.72;;;13.43;55.44
46534;BME280;32260;52.008;4.752;2023-04-20T10:19:45;101996.84;;;13.64;55.12
46534;BME280;32260;52.008;4.752;2023-04-20T10:22:24;102012.59;;;13.81;54.54
46534;BME280;32260;52.008;4.752;2023-04-20T10:24:50;102010.56;;;13.99;54.36
46534;BME280;32260;52.008;4.752;2023-04-20T10:27:18;102006.75;;;14.15;54.37
46534;BME280;32260;52.008;4.752;2023-04-20T10:29:45;102003.94;;;14.23;53.22
46534;BME280;32260;52.008;4.752;2023-04-20T10:32:27;101995.78;;;14.34;52.63
46534;BME280;32260;52.008;4.752;2023-04-20T10:35:04;102005.44;;;14.41;52.62
46534;BME280;32260;52.008;4.752;2023-04-20T10:37:31;101999.25;;;14.37;52.11
46534;BME280;32260;52.008;4.752;2023-04-20T10:39:58;101987.63;;;14.42;52.59
46534;BME280;32260;52.008;4.752;2023-04-20T10:42:24;101992.97;;;14.43;52.33
46534;BME280;32260;52.008;4.752;2023-04-20T10:44:52;101985.88;;;14.42;52.50
46534;BME280;32260;52.008;4.752;2023-04-20T10:47:30;101993.81;;;14.44;52.04
46534;BME280;32260;52.008;4.752;2023-04-20T10:50:17;101987.94;;;14.23;51.28
46534;BME280;32260;52.008;4.752;2023-04-20T10:52:46;101996.13;;;14.14;51.50
46534;BME280;32260;52.008;4.752;2023-04-20T10:55:23;102001.44;;;14.14;51.13
46534;BME280;32260;52.008;4.752;2023-04-20T10:57:50;101992.72;;;14.04;51.42
46534;BME280;32260;52.008;4.752;2023-04-20T11:00:19;101992.78;;;13.99;51.79
46534;BME280;32260;52.008;4.752;2023-04-20T11:02:48;101981.66;;;13.72;51.61
46534;BME280;32260;52.008;4.752;2023-04-20T11:05:16;101984.44;;;13.65;51.32
46534;BME280;32260;52.008;4.752;2023-04-20T11:07:59;101989.78;;;13.65;51.64
46534;BME280;32260;52.008;4.752;2023-04-20T11:10:41;101985.47;;;13.54;52.04
46534;BME280;32260;52.008;4.752;2023-04-20T11:13:22;101978.41;;;13.53;51.80
46534;BME280;32260;52.008;4.752;2023-04-20T11:15:50;101981.13;;;13.49;51.58
46534;BME280;32260;52.008;4.752;2023-04-20T11:18:16;101973.09;;;13.50;52.14
46534;BME280;32260;52.008;4.752;2023-04-20T11:20:54;101971.16;;;13.62;51.75
46534;BME280;32260;52.008;4.752;2023-04-20T11:23:22;101967.56;;;13.66;52.47
46534;BME280;32260;52.008;4.752;2023-04-20T11:25:53;101967.41;;;13.75;51.82
46534;BME280;32260;52.008;4.752;2023-04-20T11:28:20;101953.81;;;13.94;51.85
46534;BME280;32260;52.008;4.752;2023-04-20T11:30:48;101945.53;;;14.11;51.91
46534;BME280;32260;52.008;4.752;2023-04-20T11:33:30;101937.13;;;14.34;52.30
46534;BME280;32260;52.008;4.752;2023-04-20T11:36:01;101940.81;;;14.75;51.89
46534;BME280;32260;52.008;4.752;2023-04-20T11:38:32;101931.31;;;15.04;50.98
46534;BME280;32260;52.008;4.752;2023-04-20T11:40:59;101925.59;;;15.23;49.71
46534;BME280;32260;52.008;4.752;2023-04-20T11:43:33;101926.06;;;15.42;48.95
46534;BME280;32260;52.008;4.752;2023-04-20T11:46:11;101921.56;;;15.44;49.51
46534;BME280;32260;52.008;4.752;2023-04-20T11:49:06;101912.44;;;15.52;48.05
46534;BME280;32260;52.008;4.752;2023-04-20T11:51:32;101917.59;;;15.62;48.33
46534;BME280;32260;52.008;4.752;2023-04-20T11:53:58;101918.00;;;15.82;48.89
46534;BME280;32260;52.008;4.752;2023-04-20T11:56:24;101909.34;;;16.07;48.42
46534;BME280;32260;52.008;4.752;2023-04-20T11:58:50;101920.47;;;16.25;47.57
46534;BME280;32260;52.008;4.752;2023-04-20T12:01:16;101921.38;;;16.25;46.71
46534;BME280;32260;52.008;4.752;2023-04-20T12:03:43;101924.25;;;16.17;46.98
46534;BME280;32260;52.008;4.752;2023-04-20T12:06:09;101914.94;;;15.98;46.97
46534;BME280;32260;52.008;4.752;2023-04-20T12:08:35;101915.25;;;15.85;45.86
46534;BME280;32260;52.008;4.752;2023-04-20T12:11:02;101914.50;;;15.79;45.75
46534;BME280;32260;52.008;4.752;2023-04-20T12:13:28;101910.25;;;15.70;46.58
46534;BME280;32260;52.008;4.752;2023-04-20T12:15:54;101917.28;;;15.74;46.93
46534;BME280;32260;52.008;4.752;2023-04-20T12:18:20;101905.66;;;15.77;46.43
46534;BME280;32260;52.008;4.752;2023-04-20T12:20:46;101906.44;;;15.80;45.17
46534;BME280;32260;52.008;4.752;2023-04-20T12:23:12;101906.44;;;15.80;46.66
46534;BME280;32260;52.008;4.752;2023-04-20T12:25:38;101910.34;;;15.67;46.32
46534;BME280;32260;52.008;4.752;2023-04-20T12:28:04;101903.53;;;15.53;46.84
46534;BME280;32260;52.008;4.752;2023-04-20T12:30:32;101903.84;;;15.40;48.55
46534;BME280;32260;52.008;4.752;2023-04-20T12:33:02;101896.09;;;15.29;48.90
46534;BME280;32260;52.008;4.752;2023-04-20T12:35:29;101896.16;;;15.26;48.21
46534;BME280;32260;52.008;4.752;2023-04-20T12:37:55;101888.16;;;15.26;48.84
46534;BME280;32260;52.008;4.752;2023-04-20T12:40:21;101884.44;;;15.31;48.57
46534;BME280;32260;52.008;4.752;2023-04-20T12:42:47;101883.66;;;15.28;48.14
46534;BME280;32260;52.008;4.752;2023-04-20T12:45:14;101879.25;;;15.27;47.31
46534;BME280;32260;52.008;4.752;2023-04-20T12:47:40;101880.31;;;15.18;47.81
46534;BME280;32260;52.008;4.752;2023-04-20T12:50:06;101889.38;;;15.11;47.81
46534;BME280;32260;52.008;4.752;2023-04-20T12:52:33;101877.22;;;14.97;48.07
46534;BME280;32260;52.008;4.752;2023-04-20T12:54:59;101883.75;;;14.82;48.13
46534;BME280;32260;52.008;4.752;2023-04-20T12:57:26;101880.56;;;14.65;47.80
46534;BME280;32260;52.008;4.752;2023-04-20T12:59:53;101883.63;;;14.43;48.22